Cap Theodora — SVAM5 — position and weather

sailwx.info

Track history (hours):
 
Tides and Currents Weather Stations Pressure Air Temp Water Temp Dewpoint Dewpoint Depression Visibility Wind Speed Wind Dir Waves Ship Positions

Cap Theodora

Last reported at 2017-Apr-29 00:19 UTC. Time now 2017-Apr-29 13:40 UTC.
Position N 35°57' W 006°11'.

Length 274 m; draft 15.3 m.

Type: Ship. MMSI: 240840000.

Date/timePositionNaut miles runAvg speedWind from/ knotsBaromVisibWave heightAir tempDewpointWater temp
2017-Apr-29 00:19N 35°57' W 006°11'515.5
2017-Apr-29 00:00N 35°57' W 006°05'1215.8
2017-Apr-28 23:13N 35°58' W 005°49'316.3
2017-Apr-28 23:00N 35°57' W 005°45'714.4
2017-Apr-28 22:30N 35°58' W 005°36'612.3
2017-Apr-28 22:00N 35°59' W 005°29'611.4
2017-Apr-28 21:30N 36°01' W 005°22'612.1
2017-Apr-28 21:00N 36°02' W 005°15'713.1
2017-Apr-28 20:30N 36°04' W 005°07'  
2017-Apr-25 07:17N 36°09' W 002°34'122 8.3
2017-Apr-24 16:36N 36°02' W 005°05'111.7
2017-Apr-24 16:29N 36°01' W 005°07'611.9
2017-Apr-24 16:00N 36°01' W 005°14'612.6
2017-Apr-24 15:30N 35°59' W 005°21'612.2
2017-Apr-24 15:00N 35°57' W 005°28'611.3
2017-Apr-24 14:30N 35°55' W 005°35'1212.0
2017-Apr-24 13:29N 35°54' W 005°50'21 9.3
2017-Apr-24 11:12N 35°54' W 006°16'71 7.2
2017-Apr-24 01:20N 36°11' W 007°41'2 7.1
2017-Apr-24 01:00N 36°11' W 007°44'73 7.8
2017-Apr-23 15:43N 36°29' W 009°12'2 7.5
2017-Apr-23 15:30N 36°29' W 009°14'28 7.2
2017-Apr-23 11:39N 36°48' W 009°39'1 7.8
2017-Apr-23 11:27N 36°50' W 009°39'7 7.8
2017-Apr-23 10:33N 36°57' W 009°41'0 7.7
2017-Apr-23 10:30N 36°57' W 009°41'4 7.7
2017-Apr-23 10:00N 37°01' W 009°42'4 7.8
2017-Apr-23 09:30N 37°05' W 009°43'4 8.0
2017-Apr-23 09:00N 37°08' W 009°45'4 8.1
2017-Apr-23 08:30N 37°12' W 009°46'4 8.1
2017-Apr-23 08:00N 37°16' W 009°47'4 8.1
2017-Apr-23 07:30N 37°20' W 009°48'4 8.1
2017-Apr-23 07:00N 37°24' W 009°49'4 8.2
2017-Apr-23 06:30N 37°28' W 009°50'4 8.1
2017-Apr-23 06:00N 37°32' W 009°51'4 8.1
2017-Apr-23 05:30N 37°36' W 009°52'4 8.0
2017-Apr-23 05:00N 37°40' W 009°54'4 8.3
2017-Apr-23 04:30N 37°44' W 009°55'4 8.5
2017-Apr-23 04:00N 37°48' W 009°56'4 8.4
2017-Apr-23 03:30N 37°52' W 009°58'4 8.6
2017-Apr-23 03:00N 37°56' W 009°59'4 8.7
2017-Apr-23 02:30N 38°00' W 010°00'4 8.8
2017-Apr-23 02:00N 38°05' W 010°02'4 8.6
2017-Apr-23 01:30N 38°09' W 010°03'4 8.5
2017-Apr-23 01:00N 38°13' W 010°04'4 8.5
2017-Apr-23 00:30N 38°17' W 010°05'4 8.2
2017-Apr-23 00:00N 38°21' W 010°06'4 7.8
2017-Apr-22 23:30N 38°25' W 010°07'4 8.0
2017-Apr-22 23:00N 38°29' W 010°08'4 8.1
2017-Apr-22 22:30N 38°33' W 010°10'4 8.2
2017-Apr-22 22:00N 38°37' W 010°11'4 8.0
2017-Apr-22 21:30N 38°41' W 010°12'4 7.9
2017-Apr-22 21:00N 38°45' W 010°13'4 8.0
2017-Apr-22 20:30N 38°49' W 010°13'4 7.8
2017-Apr-22 20:00N 38°53' W 010°14'4 8.0
2017-Apr-22 19:30N 38°57' W 010°14'4 8.1
2017-Apr-22 19:00N 39°01' W 010°14'4 8.1
2017-Apr-22 18:30N 39°05' W 010°15'4 8.0
2017-Apr-22 18:00N 39°09' W 010°15'4 8.0
2017-Apr-22 17:30N 39°13' W 010°16'4 7.7
2017-Apr-22 17:00N 39°16' W 010°16'4 7.8
2017-Apr-22 16:30N 39°20' W 010°17'4 8.0
2017-Apr-22 16:00N 39°24' W 010°18'4 7.7
2017-Apr-22 15:30N 39°28' W 010°18'4 7.5
2017-Apr-22 15:00N 39°32' W 010°19'4 7.3
2017-Apr-22 14:30N 39°35' W 010°19'7 7.3
2017-Apr-22 13:30N 39°43' W 010°20'4 7.4
2017-Apr-22 13:00N 39°46' W 010°20'4 7.2
2017-Apr-22 12:30N 39°50' W 010°20'4 7.0
2017-Apr-22 12:00N 39°54' W 010°21'67 8.4
2017-Apr-22 03:59N 41°00' W 010°27'4 8.2
2017-Apr-22 03:30N 41°04' W 010°28'6 8.0
2017-Apr-22 02:46N 41°10' W 010°29'2 8.1
2017-Apr-22 02:30N 41°12' W 010°30'  
2017-Apr-19 11:23N 49°58' W 006°47'3611.2
2017-Apr-19 08:13N 50°29' W 006°21'410.3
2017-Apr-19 07:50N 50°32' W 006°17'1511.1
2017-Apr-19 06:29N 50°45' W 006°05'611.4
2017-Apr-19 05:59N 50°50' W 005°60'611.4
2017-Apr-19 05:25N 50°55' W 005°54'911.4
2017-Apr-19 04:38N 51°03' W 005°46'211.4
2017-Apr-19 04:30N 51°04' W 005°45'611.3
2017-Apr-19 04:00N 51°09' W 005°40'611.3
2017-Apr-19 03:30N 51°14' W 005°36'611.6
2017-Apr-19 03:00N 51°19' W 005°31'611.8
2017-Apr-19 02:30N 51°24' W 005°26'611.3
2017-Apr-19 01:59N 51°29' W 005°21'  
Track history (hours):
 
Tides and Currents Weather Stations Pressure Air Temp Water Temp Dewpoint Dewpoint Depression Visibility Wind Speed Wind Dir Waves Ship Positions

Cap Theodora

Last reported at 2017-Apr-29 00:19 UTC. Time now 2017-Apr-29 13:40 UTC.
Position N 35°57' W 006°11'.

Length 274 m; draft 15.3 m.

Type: Ship. MMSI: 240840000.

Date/timePositionNaut miles runAvg speedWind from/ knotsBaromVisibWave heightAir tempDewpointWater temp
2017-Apr-29 00:19N 35°57' W 006°11'515.5
2017-Apr-29 00:00N 35°57' W 006°05'1215.8
2017-Apr-28 23:13N 35°58' W 005°49'316.3
2017-Apr-28 23:00N 35°57' W 005°45'714.4
2017-Apr-28 22:30N 35°58' W 005°36'612.3
2017-Apr-28 22:00N 35°59' W 005°29'611.4
2017-Apr-28 21:30N 36°01' W 005°22'612.1
2017-Apr-28 21:00N 36°02' W 005°15'713.1
2017-Apr-28 20:30N 36°04' W 005°07'  
2017-Apr-25 07:17N 36°09' W 002°34'122 8.3
2017-Apr-24 16:36N 36°02' W 005°05'111.7
2017-Apr-24 16:29N 36°01' W 005°07'611.9
2017-Apr-24 16:00N 36°01' W 005°14'612.6
2017-Apr-24 15:30N 35°59' W 005°21'612.2
2017-Apr-24 15:00N 35°57' W 005°28'611.3
2017-Apr-24 14:30N 35°55' W 005°35'1212.0
2017-Apr-24 13:29N 35°54' W 005°50'21 9.3
2017-Apr-24 11:12N 35°54' W 006°16'71 7.2
2017-Apr-24 01:20N 36°11' W 007°41'2 7.1
2017-Apr-24 01:00N 36°11' W 007°44'73 7.8
2017-Apr-23 15:43N 36°29' W 009°12'2 7.5
2017-Apr-23 15:30N 36°29' W 009°14'28 7.2
2017-Apr-23 11:39N 36°48' W 009°39'1 7.8
2017-Apr-23 11:27N 36°50' W 009°39'7 7.8
2017-Apr-23 10:33N 36°57' W 009°41'0 7.7
2017-Apr-23 10:30N 36°57' W 009°41'4 7.7
2017-Apr-23 10:00N 37°01' W 009°42'4 7.8
2017-Apr-23 09:30N 37°05' W 009°43'4 8.0
2017-Apr-23 09:00N 37°08' W 009°45'4 8.1
2017-Apr-23 08:30N 37°12' W 009°46'4 8.1
2017-Apr-23 08:00N 37°16' W 009°47'4 8.1
2017-Apr-23 07:30N 37°20' W 009°48'4 8.1
2017-Apr-23 07:00N 37°24' W 009°49'4 8.2
2017-Apr-23 06:30N 37°28' W 009°50'4 8.1
2017-Apr-23 06:00N 37°32' W 009°51'4 8.1
2017-Apr-23 05:30N 37°36' W 009°52'4 8.0
2017-Apr-23 05:00N 37°40' W 009°54'4 8.3
2017-Apr-23 04:30N 37°44' W 009°55'4 8.5
2017-Apr-23 04:00N 37°48' W 009°56'4 8.4
2017-Apr-23 03:30N 37°52' W 009°58'4 8.6
2017-Apr-23 03:00N 37°56' W 009°59'4 8.7
2017-Apr-23 02:30N 38°00' W 010°00'4 8.8
2017-Apr-23 02:00N 38°05' W 010°02'4 8.6
2017-Apr-23 01:30N 38°09' W 010°03'4 8.5
2017-Apr-23 01:00N 38°13' W 010°04'4 8.5
2017-Apr-23 00:30N 38°17' W 010°05'4 8.2
2017-Apr-23 00:00N 38°21' W 010°06'4 7.8
2017-Apr-22 23:30N 38°25' W 010°07'4 8.0
2017-Apr-22 23:00N 38°29' W 010°08'4 8.1
2017-Apr-22 22:30N 38°33' W 010°10'4 8.2
2017-Apr-22 22:00N 38°37' W 010°11'4 8.0
2017-Apr-22 21:30N 38°41' W 010°12'4 7.9
2017-Apr-22 21:00N 38°45' W 010°13'4 8.0
2017-Apr-22 20:30N 38°49' W 010°13'4 7.8
2017-Apr-22 20:00N 38°53' W 010°14'4 8.0
2017-Apr-22 19:30N 38°57' W 010°14'4 8.1
2017-Apr-22 19:00N 39°01' W 010°14'4 8.1
2017-Apr-22 18:30N 39°05' W 010°15'4 8.0
2017-Apr-22 18:00N 39°09' W 010°15'4 8.0
2017-Apr-22 17:30N 39°13' W 010°16'4 7.7
2017-Apr-22 17:00N 39°16' W 010°16'4 7.8
2017-Apr-22 16:30N 39°20' W 010°17'4 8.0
2017-Apr-22 16:00N 39°24' W 010°18'4 7.7
2017-Apr-22 15:30N 39°28' W 010°18'4 7.5
2017-Apr-22 15:00N 39°32' W 010°19'4 7.3
2017-Apr-22 14:30N 39°35' W 010°19'7 7.3
2017-Apr-22 13:30N 39°43' W 010°20'4 7.4
2017-Apr-22 13:00N 39°46' W 010°20'4 7.2
2017-Apr-22 12:30N 39°50' W 010°20'4 7.0
2017-Apr-22 12:00N 39°54' W 010°21'67 8.4
2017-Apr-22 03:59N 41°00' W 010°27'4 8.2
2017-Apr-22 03:30N 41°04' W 010°28'6 8.0
2017-Apr-22 02:46N 41°10' W 010°29'2 8.1
2017-Apr-22 02:30N 41°12' W 010°30'  
2017-Apr-19 11:23N 49°58' W 006°47'3611.2
2017-Apr-19 08:13N 50°29' W 006°21'410.3
2017-Apr-19 07:50N 50°32' W 006°17'1511.1
2017-Apr-19 06:29N 50°45' W 006°05'611.4
2017-Apr-19 05:59N 50°50' W 005°60'611.4
2017-Apr-19 05:25N 50°55' W 005°54'911.4
2017-Apr-19 04:38N 51°03' W 005°46'211.4
2017-Apr-19 04:30N 51°04' W 005°45'611.3
2017-Apr-19 04:00N 51°09' W 005°40'611.3
2017-Apr-19 03:30N 51°14' W 005°36'611.6
2017-Apr-19 03:00N 51°19' W 005°31'611.8
2017-Apr-19 02:30N 51°24' W 005°26'611.3
2017-Apr-19 01:59N 51°29' W 005°21'  

Dump ship's entire track history